Tri-State, Milton J. Ferguson Field Huntington US
ICAO: KHTS
IATA: HTS
Category: Large
Scheduled Services: Yes

Elevation: 828 ft
TransAlt. 18000 ft.

Airport Communications:
HUNTINGTON APP/DEP:119.75
ATIS:125.2
CLNC DEL:118.05
GND:121.9
ELKINS RDO:122.2
HUNTINGTON TWR:118.5
UNICOM:122.95

KHTS Zoom In..

If you have problems with the map follow the link
https://www.worldairports.se/pages/airport.php?
ICAO=KHTS

Runways:

(A) RW 12 length 7017 ft width 150 ft
ILS 109.90 / hdg 118

(B) RW 30 length 7017 ft width 150 ft
ILS 108.70 / hdg 298

Location; KHTS
Day. 22 / Time. 11.51 Zulu
* Altimeter: 30.44
* Temperature: 7/° c. 44.6°f.
* Wind from: 090° Speed 03 kn.
Dewpoint: //° c.
Visibility: 10 Statute Miles.
Clouds: Clear (automated report).

KHTS 221151Z 09003KT 10SM CLR M10/M12 A3044 RMK AO2 SLP318 7//// I1000 I6000 T11001117 11072 21100 53002 $


Wind From 090°
Speed 03 kn.

 
 
jpsmedia worldairports.se 2020   terms of use